Trenton, Utah
Current Conditions -  °F | °C
As of 11:51 PM on Saturday 25 Oct 2014 (Local Time) from KLGU Reporting Station
Clear Clear  
Wind Chill: 68°   Ceiling: Unl
Heat Index: 68°   Visibility: 10mi
Dew Point: 38°   Wind: 20mph
Humidity: 33%   Direction: 200°SSW
Pressure: 29.86"   Gusts: 35mph
Location:  41.92°N, 111.94°W
Report Text: KLGU 260551Z AUTO 20017G30KT 10SM CLR 20/03 A2986 RMK AO2 PK WND 21033/0457 SLP066 60000 T02000033 10211 20139 53003 TSNO
Loading
Personal Weather Stations






























Interactive Weather Map
Tropical Storm Tracking
New forecast layout! Learn more

10-Day Weather Forecast

Advertisements
Track Severe Weather on mobile